createdAt,value
2017-02-14T00:02:50.305Z,1.01
2017-02-14T00:07:46.539Z,0.94
2017-02-14T00:12:43.436Z,1.01
2017-02-14T00:17:39.519Z,1.02
2017-02-14T00:22:36.466Z,0.96
2017-02-14T00:27:33.499Z,0.81
2017-02-14T00:32:30.226Z,0.70
2017-02-14T00:37:26.609Z,0.84
2017-02-14T00:42:22.576Z,0.78
2017-02-14T00:47:18.828Z,0.76
2017-02-14T00:52:15.215Z,0.69
2017-02-14T00:57:11.102Z,0.91
2017-02-14T01:02:07.625Z,0.73
2017-02-14T01:07:03.704Z,0.69
2017-02-14T01:11:59.976Z,0.68
2017-02-14T01:16:56.677Z,0.65
2017-02-14T01:21:53.570Z,0.69
2017-02-14T01:26:49.920Z,0.52
2017-02-14T01:31:46.271Z,0.78
2017-02-14T01:36:42.550Z,0.83
2017-02-14T01:41:38.907Z,0.84
2017-02-14T01:46:35.166Z,0.59
2017-02-14T01:51:31.227Z,0.50
2017-02-14T01:56:27.708Z,0.40
2017-02-14T02:01:24.066Z,0.52
2017-02-14T02:06:20.210Z,0.49
2017-02-14T02:11:16.377Z,0.69
2017-02-14T02:16:14.961Z,0.29
2017-02-14T02:21:10.884Z,0.23
2017-02-14T02:26:07.103Z,0.25
2017-02-14T02:31:03.403Z,0.49
2017-02-14T02:35:59.410Z,0.47
2017-02-14T02:40:56.458Z,0.40
2017-02-14T02:45:52.850Z,0.65
2017-02-14T02:50:49.243Z,0.88
2017-02-14T02:55:45.642Z,0.66
2017-02-14T03:00:42.190Z,1.01
2017-02-14T03:05:38.516Z,0.88
2017-02-14T03:10:35.038Z,0.84
2017-02-14T03:15:31.438Z,1.08
2017-02-14T03:20:28.446Z,0.91
2017-02-14T03:25:25.015Z,0.80
2017-02-14T03:30:21.421Z,0.81
2017-02-14T03:35:17.693Z,0.84
2017-02-14T03:40:13.776Z,0.80
2017-02-14T03:45:10.273Z,0.63
2017-02-14T03:50:06.501Z,0.56
2017-02-14T03:55:03.134Z,0.80
2017-02-14T03:59:59.815Z,0.62
2017-02-14T04:04:56.792Z,0.66
2017-02-14T04:09:53.152Z,0.74
2017-02-14T04:14:49.556Z,0.86
2017-02-14T04:19:45.825Z,0.69
2017-02-14T04:24:42.229Z,0.60
2017-02-14T04:29:39.110Z,0.52
2017-02-14T04:34:36.151Z,0.49
2017-02-14T04:39:32.480Z,0.43
2017-02-14T04:44:28.868Z,0.39
2017-02-14T04:49:25.834Z,0.65
2017-02-14T04:54:22.067Z,0.59
2017-02-14T04:59:18.520Z,0.78
2017-02-14T05:04:14.365Z,0.74
2017-02-14T05:09:10.788Z,0.81
2017-02-14T05:14:07.084Z,0.80
2017-02-14T05:19:03.345Z,0.50
2017-02-14T05:23:59.700Z,0.44
2017-02-14T05:28:56.024Z,0.49
2017-02-14T05:33:52.447Z,0.62
2017-02-14T05:38:48.785Z,0.76
2017-02-14T05:43:45.879Z,0.62
2017-02-14T05:48:42.128Z,0.46
2017-02-14T05:53:38.240Z,0.47
2017-02-14T05:58:34.651Z,0.66
2017-02-14T06:03:31.006Z,0.49
2017-02-14T06:08:27.352Z,0.41
2017-02-14T06:13:23.577Z,0.25
2017-02-14T06:18:20.197Z,0.31
2017-02-14T06:23:16.516Z,0.19
2017-02-14T06:28:12.837Z,0.00
2017-02-14T06:33:09.093Z,0.07
2017-02-14T06:38:05.068Z,0.07
2017-02-14T06:43:01.087Z,-0.02
2017-02-14T06:47:57.250Z,0.12
2017-02-14T06:52:53.777Z,-0.02
2017-02-14T06:57:50.330Z,0.12
2017-02-14T07:02:46.630Z,-0.06
2017-02-14T07:07:43.726Z,0.05
2017-02-14T07:12:40.017Z,-0.02
2017-02-14T07:17:36.191Z,0.08
2017-02-14T07:22:32.476Z,0.23
2017-02-14T07:27:28.742Z,0.36
2017-02-14T07:32:25.198Z,0.39
2017-02-14T07:37:21.451Z,0.70
2017-02-14T07:42:17.941Z,0.87
2017-02-14T07:47:14.277Z,1.13
2017-02-14T07:52:11.384Z,1.06
2017-02-14T07:57:08.680Z,1.40
2017-02-14T08:02:05.109Z,1.58
2017-02-14T08:07:01.557Z,1.85
2017-02-14T08:11:58.032Z,1.97
2017-02-14T08:16:54.755Z,2.14
2017-02-14T08:21:51.476Z,2.15
2017-02-14T08:26:47.839Z,2.43
2017-02-14T08:31:44.421Z,2.51
2017-02-14T08:36:41.041Z,2.79
2017-02-14T08:41:37.616Z,2.89
2017-02-14T08:46:34.148Z,2.98
2017-02-14T08:51:30.577Z,3.51
2017-02-14T08:56:27.220Z,3.76
2017-02-14T09:01:23.991Z,3.95
2017-02-14T09:06:20.521Z,4.10
2017-02-14T09:11:17.167Z,4.59
2017-02-14T09:16:13.759Z,4.40
2017-02-14T09:21:10.212Z,4.41
2017-02-14T09:26:06.610Z,4.60
2017-02-14T09:31:02.563Z,4.87
2017-02-14T09:35:59.214Z,4.73
2017-02-14T09:40:55.823Z,5.17
2017-02-14T09:45:53.383Z,5.86
2017-02-14T09:50:50.326Z,6.51
2017-02-14T09:55:47.265Z,6.49
2017-02-14T10:00:43.825Z,6.79
2017-02-14T10:05:40.375Z,7.95
2017-02-14T10:10:37.082Z,6.84
2017-02-14T10:15:33.595Z,6.89
2017-02-14T10:20:30.379Z,7.40
2017-02-14T10:25:28.141Z,7.54
2017-02-14T10:30:25.252Z,7.02
2017-02-14T10:35:23.137Z,7.94
2017-02-14T10:40:19.131Z,7.58
2017-02-14T10:45:16.087Z,6.95
2017-02-14T10:50:12.608Z,7.47
2017-02-14T10:55:10.376Z,7.85
2017-02-14T11:00:06.670Z,8.01
2017-02-14T11:05:03.648Z,8.19
2017-02-14T11:10:00.206Z,8.49
2017-02-14T11:14:56.924Z,9.36
2017-02-14T11:19:53.823Z,9.36
2017-02-14T11:24:49.948Z,9.25
2017-02-14T11:29:46.436Z,10.53
2017-02-14T11:34:43.780Z,11.08
2017-02-14T11:39:40.673Z,10.22
2017-02-14T11:44:37.412Z,10.42
2017-02-14T11:49:34.153Z,11.54
2017-02-14T11:54:30.822Z,10.38
2017-02-14T11:59:27.274Z,10.42
2017-02-14T12:04:23.954Z,11.29
2017-02-14T12:09:20.579Z,10.86
2017-02-14T12:14:17.150Z,10.28
2017-02-14T12:19:13.444Z,10.89
2017-02-14T12:24:10.346Z,10.37
2017-02-14T12:29:07.358Z,10.10
2017-02-14T12:34:03.527Z,10.37
2017-02-14T12:39:00.077Z,9.62
2017-02-14T12:43:56.521Z,9.72
2017-02-14T12:48:52.967Z,10.19
2017-02-14T12:53:50.435Z,9.82
2017-02-14T12:58:46.698Z,9.92
2017-02-14T13:03:43.431Z,10.22
2017-02-14T13:08:39.965Z,10.38
2017-02-14T13:13:36.529Z,10.57
2017-02-14T13:18:32.857Z,9.46
2017-02-14T13:23:29.224Z,9.62
2017-02-14T13:28:25.854Z,9.89
2017-02-14T13:33:22.464Z,9.80
2017-02-14T13:38:19.345Z,10.10
2017-02-14T13:43:15.968Z,9.97
2017-02-14T13:48:11.930Z,10.10
2017-02-14T13:53:08.935Z,10.25
2017-02-14T13:58:05.608Z,10.07
2017-02-14T14:03:02.365Z,10.41
2017-02-14T14:07:59.018Z,11.78
2017-02-14T14:12:59.043Z,11.62
2017-02-14T14:17:55.115Z,11.77
2017-02-14T14:22:51.678Z,11.19
2017-02-14T14:27:48.419Z,10.37
2017-02-14T14:32:45.101Z,10.12
2017-02-14T14:37:41.837Z,10.30
2017-02-14T14:42:38.557Z,10.35
2017-02-14T14:47:35.117Z,10.63
2017-02-14T14:52:31.812Z,10.59
2017-02-14T14:57:28.476Z,10.57
2017-02-14T15:02:25.672Z,10.79
2017-02-14T15:07:22.366Z,10.46
2017-02-14T15:12:18.436Z,10.23
2017-02-14T15:17:14.855Z,9.95
2017-02-14T15:22:11.115Z,9.66
2017-02-14T15:27:07.578Z,9.44
2017-02-14T15:32:03.926Z,9.36
2017-02-14T15:37:00.375Z,9.39
2017-02-14T15:41:58.490Z,9.25
2017-02-14T15:46:55.118Z,9.21
2017-02-14T15:51:51.922Z,8.84
2017-02-14T15:56:48.228Z,8.64
2017-02-14T16:01:44.230Z,8.31
2017-02-14T16:06:40.439Z,8.30
2017-02-14T16:11:36.903Z,8.41
2017-02-14T16:16:32.912Z,8.36
2017-02-14T16:21:29.348Z,8.12
2017-02-14T16:26:25.752Z,7.98
2017-02-14T16:31:22.369Z,7.87
2017-02-14T16:36:18.533Z,7.70
2017-02-14T16:41:15.036Z,7.77
2017-02-14T16:46:11.582Z,7.61
2017-02-14T16:51:07.807Z,7.18
2017-02-14T16:56:04.171Z,7.07
2017-02-14T17:01:00.506Z,7.15
2017-02-14T17:05:56.814Z,7.18
2017-02-14T17:10:53.273Z,7.00
2017-02-14T17:15:49.847Z,6.75
2017-02-14T17:20:46.326Z,6.70
2017-02-14T17:25:42.867Z,6.52
2017-02-14T17:30:39.126Z,6.38
2017-02-14T17:35:35.668Z,6.16
2017-02-14T17:40:31.799Z,5.86
2017-02-14T17:45:28.010Z,6.04
2017-02-14T17:50:24.506Z,6.09
2017-02-14T17:55:20.468Z,6.02
2017-02-14T18:00:16.988Z,5.71
2017-02-14T18:05:13.246Z,5.82
2017-02-14T18:10:10.164Z,5.87
2017-02-14T18:15:06.505Z,5.80
2017-02-14T18:20:02.825Z,5.66
2017-02-14T18:25:00.113Z,5.18
2017-02-14T18:29:56.446Z,5.08
2017-02-14T18:34:52.957Z,4.92
2017-02-14T18:39:49.095Z,4.77
2017-02-14T18:44:46.815Z,4.78
2017-02-14T18:49:42.886Z,4.66
2017-02-14T18:54:39.203Z,4.58
2017-02-14T18:59:35.763Z,4.49
2017-02-14T19:04:32.386Z,4.50
2017-02-14T19:09:28.701Z,4.32
2017-02-14T19:14:25.183Z,4.32
2017-02-14T19:19:21.295Z,4.12
2017-02-14T19:24:20.604Z,4.04
2017-02-14T19:29:16.062Z,3.96
2017-02-14T19:34:12.598Z,3.83
2017-02-14T19:39:09.149Z,3.86
2017-02-14T19:44:05.291Z,3.69
2017-02-14T19:49:01.602Z,3.65
2017-02-14T19:53:59.204Z,3.59
2017-02-14T19:58:55.249Z,3.56
2017-02-14T20:03:51.481Z,3.50
2017-02-14T20:08:47.676Z,3.47
2017-02-14T20:13:43.972Z,3.47
2017-02-14T20:18:40.540Z,3.23
2017-02-14T20:23:37.560Z,3.10
2017-02-14T20:28:33.936Z,3.05
2017-02-14T20:33:30.499Z,2.98
2017-02-14T20:38:27.660Z,3.08
2017-02-14T20:43:23.950Z,3.08
2017-02-14T20:48:20.285Z,2.98
2017-02-14T20:53:16.565Z,2.87
2017-02-14T20:58:13.907Z,2.86
2017-02-14T21:03:10.399Z,2.77
2017-02-14T21:08:06.841Z,2.65
2017-02-14T21:13:03.222Z,3.21
2017-02-14T21:17:59.638Z,3.63
2017-02-14T21:22:57.104Z,3.65
2017-02-14T21:27:53.490Z,3.68
2017-02-14T21:32:53.064Z,3.36
2017-02-14T21:37:49.238Z,3.29
2017-02-14T21:42:45.632Z,3.26
2017-02-14T21:47:41.904Z,3.01
2017-02-14T21:52:38.317Z,2.80
2017-02-14T21:57:34.629Z,2.85
2017-02-14T22:02:31.051Z,2.89
2017-02-14T22:07:27.436Z,2.74
2017-02-14T22:12:24.714Z,2.85
2017-02-14T22:17:20.752Z,3.08
2017-02-14T22:22:17.842Z,2.97
2017-02-14T22:27:13.772Z,2.57
2017-02-14T22:32:10.866Z,2.36
2017-02-14T22:37:07.014Z,2.29
2017-02-14T22:42:03.443Z,2.18
2017-02-14T22:46:59.610Z,2.14
2017-02-14T22:51:56.268Z,2.02
2017-02-14T22:56:52.708Z,2.11
2017-02-14T23:01:48.986Z,1.99
2017-02-14T23:06:45.426Z,1.81
2017-02-14T23:11:41.504Z,1.87
2017-02-14T23:16:37.845Z,2.00
2017-02-14T23:21:34.305Z,1.94
2017-02-14T23:26:30.842Z,2.17
2017-02-14T23:31:27.262Z,2.11
2017-02-14T23:36:24.213Z,2.11
2017-02-14T23:41:20.460Z,2.07
2017-02-14T23:46:16.886Z,1.94
2017-02-14T23:51:13.001Z,1.89
2017-02-14T23:56:09.608Z,1.52
